x

Cape Elizabeth- 45nm Nw Of Aberdeen, Wa (46041) Wave Buoy

7:50pm - Sat 18th Nov 2017 All times are PST. -8 hours from GMT.

  • Sig Wave height 6.6ft
  • Swell Direction
  • Peak Period 8s
  • Average Period 6s
  • Wind
    22mph, 25mph gusts
  • Sea Temp 54°f
  • Air Temp 52°f
  • Sea Pressure 1018.1mb
  • Cape Elizabeth- 45nm Nw Of Aberdeen, Wa
  • Cape Elizabeth- 45nm Nw Of Aberdeen, Wa

More Historic Weather Station data

Upgrade to MSW Pro to gain access to the past 30 days of data for over 8000 Wavebouys and Weather Stations around the globe.

Join

Comparision Forecast

View Surf forecast
   
Sat 11/18 7:50pm 6.5ft 8s 6s 22 25 mph 1018.1mb 54f 52f
6:50pm 6ft 8s 6s 22 27 mph 1018.2mb 54f 52f
5:50pm 6ft 8s 5s 22 25 mph 1018.6mb 54f 52f
4:50pm 6ft 7s 5s 20 25 mph 1019mb 54f 52f
3:50pm 6ft 8s 5s 20 25 mph 1019.2mb 54f 51f
2:50pm 6ft 7s 5s 20 25 mph 1019.5mb 54f 51f
1:50pm 6ft 7s 5s 22 25 mph 1019.9mb 54f 51f
12:50pm 6ft 5s 5s 22 27 mph 1020.4mb 53f 51f
11:50am 6.5ft 5s 5s 22 27 mph 1021.2mb 53f 50f
10:50am 6ft 5s 5s 22 27 mph 1022mb 53f 49f
9:50am 5.5ft 5s 5s 22 27 mph 1022.1mb 53f 50f
8:50am 5ft 7s 5s 20 25 mph 1022.4mb 53f 52f
7:50am 4.5ft 8s 5s 18 22 mph 1022.6mb 53f 52f
6:50am 4.5ft 8s 5s 13 18 mph 1022.8mb 53f 52f
5:50am 4.5ft 7s 5s 16 20 mph 1023.2mb 53f 50f
3:50am 4.5ft 8s 5s 16 20 mph 1023.4mb 53f 52f
2:50am 4.5ft 8s 5s 16 18 mph 1023.8mb 53f 52f
1:50am 5ft 8s 5s 13 16 mph 1023.9mb 53f 51f
12:50am 4.5ft 7s 5s 13 16 mph 1024.1mb 53f 51f
Fri 11/17 11:50pm 5ft 8s 6s 13 18 mph 1024.2mb 53f 51f
10:50pm 5.5ft 8s 6s 13 16 mph 1024mb 53f 51f
9:50pm 5ft 8s 6s 16 18 mph 1023.7mb 53f 51f
8:50pm 5ft 8s 6s 16 18 mph 1023.5mb 53f 51f
7:50pm 5ft 9s 7s 4 9 mph 1023.5mb 53f 49f
6:50pm 6ft 8s 7s 7 11 mph 1023.4mb 53f 48f
5:50pm 6ft 8s 7s 2 4 mph 1023mb 53f 48f
4:50pm 5.5ft 8s 6s 9 13 mph 1022.5mb 53f 49f
3:50pm 5.5ft 8s 6s 11 13 mph 1021.9mb 53f 50f
2:50pm 5.5ft 9s 6s 9 11 mph 1021.3mb 54f 49f
1:50pm 5ft 9s 6s 13 16 mph 1020.6mb 53f 50f
11:50am 7ft 8s 6s 11 13 mph 1019mb 53f 49f
10:50am 6ft 8s 6s 11 13 mph 1018.1mb 53f 49f
9:50am 6.5ft 8s 6s 11 13 mph 1017.1mb 53f 48f
8:50am 7ft 8s 6s 13 18 mph 1016.2mb 53f 49f
7:50am 7ft 8s 6s 11 18 mph 1014.7mb 53f 49f
6:50am 7ft 9s 6s 13 16 mph 1013.5mb 53f 48f
5:50am 7ft 8s 6s 13 18 mph 1012.6mb 53f 49f
4:50am 7ft 9s 6s 16 20 mph 1011.5mb 53f 48f
3:50am 7ft 9s 6s 18 22 mph 1010.8mb 53f 49f
2:50am 7ft 9s 6s 18 22 mph 1010mb 53f 49f
1:50am 7ft 9s 6s 20 25 mph 1008.8mb 53f 49f
12:50am 6.5ft 8s 6s 22 27 mph 1007.8mb 53f 49f
Thu 11/16 11:50pm 7ft 9s 6s 20 27 mph 1007mb 53f 47f
10:50pm 7ft 8s 6s 18 22 mph 1005.9mb 53f 49f
9:50pm 7.5ft 9s 6s 18 20 mph 1005.1mb 53f 50f
8:50pm 8ft 10s 6s 20 25 mph 1004.2mb 53f 50f
7:50pm 7.5ft 10s 6s 20 22 mph 1003.7mb 53f 49f
6:50pm 7ft 10s 6s 18 22 mph 1003.3mb 53f 49f
5:50pm 6ft 11s 6s 16 20 mph 1002.7mb 53f 49f
4:50pm 6ft 11s 6s 16 18 mph 1002.5mb 53f 47f
3:50pm 6ft 9s 6s 13 16 mph 1002.2mb 53f 47f
2:50pm 6ft 8s 6s 13 18 mph 1001.7mb 53f 50f
1:50pm 6ft 8s 6s 16 20 mph 1001.4mb 53f 50f
12:50pm 7ft 9s 7s 16 18 mph 1001.4mb 53f 49f
11:50am 7ft 9s 7s 11 16 mph 1001.4mb 53f 48f
10:50am 7ft 8s 7s 20 22 mph 1001.5mb 53f 46f
9:50am 7ft 8s 7s 2 7 mph 1001.3mb 53f 46f
8:50am 8ft 9s 7s 4 7 mph 1001.3mb 53f 47f
7:50am 8ft 10s 7s 9 16 mph 1000.6mb 53f 47f
6:50am 8ft 10s 7s 4 7 mph 1000mb 53f 50f
5:50am 8ft 8s 7s 7 11 mph 1000.1mb 53f 49f
4:50am 9ft 9s 7s 11 16 mph 999.7mb 53f 50f
3:50am 9ft 10s 7s 11 13 mph 999.5mb 53f 50f
2:50am 9ft 9s 7s 13 16 mph 999.2mb 53f 50f
1:50am 9ft 9s 7s 16 18 mph 998.7mb 53f 49f
12:50am 9ft 10s 7s 13 18 mph 998.5mb 53f 49f
Wed 11/15 11:50pm 9ft 10s 7s 7 13 mph 998.1mb 53f 46f
10:50pm 9ft 9s 7s 11 13 mph 997.7mb 53f 50f
9:50pm 9ft 9s 7s 9 13 mph 997.6mb 53f 49f
8:50pm 10ft 10s 8s 4 9 mph 997.9mb 53f 47f
7:50pm 10ft 10s 8s 2 7 mph 998.3mb 53f 46f
6:50pm 10.5ft 10s 8s 9 20 mph 998.7mb 53f 48f
5:50pm 11.5ft 11s 8s 16 20 mph 998.8mb 53f 49f
4:50pm 11.5ft 10s 8s 16 18 mph 999.3mb 52f 49f
3:50pm 11.5ft 11s 8s 18 20 mph 999.8mb 52f 50f
2:50pm 14.5ft 10s 8s 13 16 mph 1000.1mb 52f 50f
1:50pm 12ft 10s 8s 13 18 mph 1000.4mb 52f 49f
12:50pm 13.5ft 10s 8s 22 29 mph 1000.2mb 53f 51f
11:50am 11ft 11s 7s 25 29 mph 1000.4mb 53f 52f
10:50am 12.5ft 11s 7s 20 25 mph 1000.8mb 53f 52f
9:50am 13.5ft 10s 8s 18 25 mph 1000.8mb 53f 51f
8:50am 12ft 10s 8s 20 22 mph 1000.8mb 53f 52f
7:50am 15ft 10s 8s 18 22 mph 1001.1mb 53f 52f
6:50am 14ft 11s 8s 20 25 mph 1000.8mb 52f 52f
5:50am 13ft 11s 8s 18 40 mph 1001mb 52f 50f